sensor_id;sensor_type;location;lat;lon;timestamp;P1;durP1;ratioP1;P2;durP2;ratioP2
47219;SDS011;32961;51.936;4.788;2023-09-07T00:01:18;9.55;;;6.18;;
47219;SDS011;32961;51.936;4.788;2023-09-07T00:03:46;9.90;;;6.28;;
47219;SDS011;32961;51.936;4.788;2023-09-07T00:06:14;9.00;;;5.60;;
47219;SDS011;32961;51.936;4.788;2023-09-07T00:08:43;9.23;;;5.90;;
47219;SDS011;32961;51.936;4.788;2023-09-07T00:11:11;10.05;;;6.38;;
47219;SDS011;32961;51.936;4.788;2023-09-07T00:13:39;12.75;;;5.60;;
47219;SDS011;32961;51.936;4.788;2023-09-07T00:16:08;11.20;;;6.22;;
47219;SDS011;32961;51.936;4.788;2023-09-07T00:18:36;13.50;;;6.22;;
47219;SDS011;32961;51.936;4.788;2023-09-07T00:21:04;8.02;;;6.25;;
47219;SDS011;32961;51.936;4.788;2023-09-07T00:23:31;11.55;;;6.72;;
47219;SDS011;32961;51.936;4.788;2023-09-07T00:25:59;9.07;;;6.47;;
47219;SDS011;32961;51.936;4.788;2023-09-07T00:28:27;10.38;;;6.65;;
47219;SDS011;32961;51.936;4.788;2023-09-07T00:30:55;12.63;;;6.40;;
47219;SDS011;32961;51.936;4.788;2023-09-07T00:33:25;10.23;;;6.65;;
47219;SDS011;32961;51.936;4.788;2023-09-07T00:35:52;12.20;;;6.90;;
47219;SDS011;32961;51.936;4.788;2023-09-07T00:38:20;8.27;;;6.90;;
47219;SDS011;32961;51.936;4.788;2023-09-07T00:40:48;17.10;;;6.72;;
47219;SDS011;32961;51.936;4.788;2023-09-07T00:43:16;9.60;;;6.80;;
47219;SDS011;32961;51.936;4.788;2023-09-07T00:45:44;23.30;;;8.23;;
47219;SDS011;32961;51.936;4.788;2023-09-07T00:48:12;10.73;;;7.65;;
47219;SDS011;32961;51.936;4.788;2023-09-07T00:50:41;9.93;;;7.03;;
47219;SDS011;32961;51.936;4.788;2023-09-07T00:53:10;12.38;;;7.53;;
47219;SDS011;32961;51.936;4.788;2023-09-07T00:55:38;8.20;;;6.88;;
47219;SDS011;32961;51.936;4.788;2023-09-07T00:58:06;8.98;;;7.35;;
47219;SDS011;32961;51.936;4.788;2023-09-07T01:00:34;11.27;;;6.93;;
47219;SDS011;32961;51.936;4.788;2023-09-07T01:03:02;11.43;;;7.45;;
47219;SDS011;32961;51.936;4.788;2023-09-07T01:05:32;12.82;;;7.60;;
47219;SDS011;32961;51.936;4.788;2023-09-07T01:08:10;9.20;;;7.30;;
47219;SDS011;32961;51.936;4.788;2023-09-07T01:10:43;11.70;;;7.18;;
47219;SDS011;32961;51.936;4.788;2023-09-07T01:13:10;11.35;;;7.20;;
47219;SDS011;32961;51.936;4.788;2023-09-07T01:15:38;8.82;;;6.75;;
47219;SDS011;32961;51.936;4.788;2023-09-07T01:18:07;8.75;;;7.03;;
47219;SDS011;32961;51.936;4.788;2023-09-07T01:20:49;9.55;;;7.13;;
47219;SDS011;32961;51.936;4.788;2023-09-07T01:23:19;11.18;;;7.88;;
47219;SDS011;32961;51.936;4.788;2023-09-07T01:25:47;9.50;;;7.25;;
47219;SDS011;32961;51.936;4.788;2023-09-07T01:28:16;12.18;;;8.20;;
47219;SDS011;32961;51.936;4.788;2023-09-07T01:30:45;12.65;;;8.27;;
47219;SDS011;32961;51.936;4.788;2023-09-07T01:33:13;12.30;;;7.97;;
47219;SDS011;32961;51.936;4.788;2023-09-07T01:35:40;9.43;;;7.40;;
47219;SDS011;32961;51.936;4.788;2023-09-07T01:38:08;20.38;;;8.55;;
47219;SDS011;32961;51.936;4.788;2023-09-07T01:40:38;9.52;;;7.53;;
47219;SDS011;32961;51.936;4.788;2023-09-07T01:43:05;11.13;;;8.18;;
47219;SDS011;32961;51.936;4.788;2023-09-07T01:45:33;13.98;;;8.38;;
47219;SDS011;32961;51.936;4.788;2023-09-07T01:48:01;10.45;;;8.48;;
47219;SDS011;32961;51.936;4.788;2023-09-07T01:50:29;10.70;;;8.40;;
47219;SDS011;32961;51.936;4.788;2023-09-07T01:52:57;9.00;;;7.60;;
47219;SDS011;32961;51.936;4.788;2023-09-07T01:55:26;18.15;;;8.65;;
47219;SDS011;32961;51.936;4.788;2023-09-07T01:57:56;15.57;;;8.73;;
47219;SDS011;32961;51.936;4.788;2023-09-07T02:00:23;11.43;;;9.00;;
47219;SDS011;32961;51.936;4.788;2023-09-07T02:02:51;13.13;;;8.23;;
47219;SDS011;32961;51.936;4.788;2023-09-07T02:05:19;13.93;;;8.80;;
47219;SDS011;32961;51.936;4.788;2023-09-07T02:07:47;14.45;;;8.43;;
47219;SDS011;32961;51.936;4.788;2023-09-07T02:10:16;8.65;;;7.72;;
47219;SDS011;32961;51.936;4.788;2023-09-07T02:12:45;10.02;;;8.68;;
47219;SDS011;32961;51.936;4.788;2023-09-07T02:15:14;13.25;;;8.63;;
47219;SDS011;32961;51.936;4.788;2023-09-07T02:17:42;12.93;;;8.95;;
47219;SDS011;32961;51.936;4.788;2023-09-07T02:20:11;11.32;;;9.23;;
47219;SDS011;32961;51.936;4.788;2023-09-07T02:22:39;13.77;;;9.27;;
47219;SDS011;32961;51.936;4.788;2023-09-07T02:25:07;17.35;;;9.45;;
47219;SDS011;32961;51.936;4.788;2023-09-07T02:27:35;10.30;;;9.20;;
47219;SDS011;32961;51.936;4.788;2023-09-07T02:30:03;12.07;;;8.68;;
47219;SDS011;32961;51.936;4.788;2023-09-07T02:32:33;11.77;;;9.70;;
47219;SDS011;32961;51.936;4.788;2023-09-07T02:35:01;13.43;;;9.73;;
47219;SDS011;32961;51.936;4.788;2023-09-07T02:37:30;13.48;;;9.52;;
47219;SDS011;32961;51.936;4.788;2023-09-07T02:39:58;10.98;;;9.15;;
47219;SDS011;32961;51.936;4.788;2023-09-07T02:42:26;21.27;;;10.07;;
47219;SDS011;32961;51.936;4.788;2023-09-07T02:44:54;14.95;;;9.57;;
47219;SDS011;32961;51.936;4.788;2023-09-07T02:47:22;12.68;;;9.88;;
47219;SDS011;32961;51.936;4.788;2023-09-07T02:49:51;13.07;;;9.65;;
47219;SDS011;32961;51.936;4.788;2023-09-07T02:52:21;16.10;;;10.57;;
47219;SDS011;32961;51.936;4.788;2023-09-07T02:54:51;16.20;;;10.55;;
47219;SDS011;32961;51.936;4.788;2023-09-07T02:57:19;16.02;;;11.25;;
47219;SDS011;32961;51.936;4.788;2023-09-07T02:59:49;11.20;;;9.85;;
47219;SDS011;32961;51.936;4.788;2023-09-07T03:02:16;13.18;;;10.07;;
47219;SDS011;32961;51.936;4.788;2023-09-07T03:04:44;17.60;;;10.65;;
47219;SDS011;32961;51.936;4.788;2023-09-07T03:07:14;13.77;;;10.43;;
47219;SDS011;32961;51.936;4.788;2023-09-07T03:09:41;13.13;;;10.57;;
47219;SDS011;32961;51.936;4.788;2023-09-07T03:12:10;13.02;;;10.48;;
47219;SDS011;32961;51.936;4.788;2023-09-07T03:14:38;12.75;;;9.57;;
47219;SDS011;32961;51.936;4.788;2023-09-07T03:17:10;14.25;;;10.00;;
47219;SDS011;32961;51.936;4.788;2023-09-07T03:19:38;14.88;;;10.27;;
47219;SDS011;32961;51.936;4.788;2023-09-07T03:22:06;15.45;;;10.40;;
47219;SDS011;32961;51.936;4.788;2023-09-07T03:24:36;12.65;;;10.63;;
47219;SDS011;32961;51.936;4.788;2023-09-07T03:27:04;14.27;;;10.77;;
47219;SDS011;32961;51.936;4.788;2023-09-07T03:29:32;13.57;;;10.05;;
47219;SDS011;32961;51.936;4.788;2023-09-07T03:32:01;11.13;;;9.73;;
47219;SDS011;32961;51.936;4.788;2023-09-07T03:34:30;15.60;;;11.45;;
47219;SDS011;32961;51.936;4.788;2023-09-07T03:36:57;16.25;;;10.75;;
47219;SDS011;32961;51.936;4.788;2023-09-07T03:39:25;14.57;;;11.07;;
47219;SDS011;32961;51.936;4.788;2023-09-07T03:41:54;16.63;;;10.50;;
47219;SDS011;32961;51.936;4.788;2023-09-07T03:44:22;12.75;;;10.93;;
47219;SDS011;32961;51.936;4.788;2023-09-07T03:46:50;13.80;;;10.00;;
47219;SDS011;32961;51.936;4.788;2023-09-07T03:49:18;13.07;;;10.48;;
47219;SDS011;32961;51.936;4.788;2023-09-07T03:51:46;13.15;;;9.05;;
47219;SDS011;32961;51.936;4.788;2023-09-07T03:54:14;13.30;;;11.50;;
47219;SDS011;32961;51.936;4.788;2023-09-07T03:56:42;19.65;;;14.70;;
47219;SDS011;32961;51.936;4.788;2023-09-07T03:59:11;26.33;;;20.40;;
47219;SDS011;32961;51.936;4.788;2023-09-07T04:01:39;20.80;;;16.13;;
47219;SDS011;32961;51.936;4.788;2023-09-07T04:04:07;14.85;;;12.07;;
47219;SDS011;32961;51.936;4.788;2023-09-07T04:06:35;13.98;;;11.93;;
47219;SDS011;32961;51.936;4.788;2023-09-07T04:09:03;14.93;;;11.50;;
47219;SDS011;32961;51.936;4.788;2023-09-07T04:11:31;16.73;;;11.75;;
47219;SDS011;32961;51.936;4.788;2023-09-07T04:13:59;15.45;;;11.05;;
47219;SDS011;32961;51.936;4.788;2023-09-07T04:16:28;14.23;;;10.57;;
47219;SDS011;32961;51.936;4.788;2023-09-07T04:18:56;16.60;;;11.52;;
47219;SDS011;32961;51.936;4.788;2023-09-07T04:21:24;17.13;;;11.77;;
47219;SDS011;32961;51.936;4.788;2023-09-07T04:23:52;16.17;;;11.55;;
47219;SDS011;32961;51.936;4.788;2023-09-07T04:26:19;19.75;;;13.02;;
47219;SDS011;32961;51.936;4.788;2023-09-07T04:28:47;12.65;;;11.20;;
47219;SDS011;32961;51.936;4.788;2023-09-07T04:31:15;17.40;;;11.85;;
47219;SDS011;32961;51.936;4.788;2023-09-07T04:33:44;25.83;;;12.35;;
47219;SDS011;32961;51.936;4.788;2023-09-07T04:36:13;14.00;;;11.77;;
47219;SDS011;32961;51.936;4.788;2023-09-07T04:38:41;17.73;;;11.93;;
47219;SDS011;32961;51.936;4.788;2023-09-07T04:41:10;14.30;;;12.25;;
47219;SDS011;32961;51.936;4.788;2023-09-07T04:43:39;18.20;;;11.90;;
47219;SDS011;32961;51.936;4.788;2023-09-07T04:46:09;20.30;;;13.10;;
47219;SDS011;32961;51.936;4.788;2023-09-07T04:48:37;19.35;;;13.70;;
47219;SDS011;32961;51.936;4.788;2023-09-07T04:51:08;18.60;;;13.50;;
47219;SDS011;32961;51.936;4.788;2023-09-07T04:53:39;21.45;;;13.55;;
47219;SDS011;32961;51.936;4.788;2023-09-07T04:56:07;18.60;;;13.23;;
47219;SDS011;32961;51.936;4.788;2023-09-07T04:58:35;17.33;;;12.32;;
47219;SDS011;32961;51.936;4.788;2023-09-07T05:01:03;15.50;;;11.20;;
47219;SDS011;32961;51.936;4.788;2023-09-07T05:03:32;18.00;;;13.25;;
47219;SDS011;32961;51.936;4.788;2023-09-07T05:06:00;21.02;;;13.60;;
47219;SDS011;32961;51.936;4.788;2023-09-07T05:08:30;17.65;;;13.55;;
47219;SDS011;32961;51.936;4.788;2023-09-07T05:10:59;21.08;;;12.77;;
47219;SDS011;32961;51.936;4.788;2023-09-07T05:13:29;18.60;;;12.25;;
47219;SDS011;32961;51.936;4.788;2023-09-07T05:15:58;18.25;;;13.40;;
47219;SDS011;32961;51.936;4.788;2023-09-07T05:18:26;17.00;;;12.75;;
47219;SDS011;32961;51.936;4.788;2023-09-07T05:20:55;29.65;;;14.85;;
47219;SDS011;32961;51.936;4.788;2023-09-07T05:23:23;23.42;;;15.35;;
47219;SDS011;32961;51.936;4.788;2023-09-07T05:25:54;17.58;;;12.55;;
47219;SDS011;32961;51.936;4.788;2023-09-07T05:28:22;17.80;;;12.25;;
47219;SDS011;32961;51.936;4.788;2023-09-07T05:30:51;20.48;;;12.13;;
47219;SDS011;32961;51.936;4.788;2023-09-07T05:33:19;16.40;;;11.65;;
47219;SDS011;32961;51.936;4.788;2023-09-07T05:35:47;20.92;;;11.75;;
47219;SDS011;32961;51.936;4.788;2023-09-07T05:38:14;14.15;;;11.77;;
47219;SDS011;32961;51.936;4.788;2023-09-07T05:40:43;22.85;;;13.90;;
47219;SDS011;32961;51.936;4.788;2023-09-07T05:43:13;15.68;;;12.30;;
47219;SDS011;32961;51.936;4.788;2023-09-07T05:45:41;16.20;;;11.95;;
47219;SDS011;32961;51.936;4.788;2023-09-07T05:48:09;18.10;;;12.27;;
47219;SDS011;32961;51.936;4.788;2023-09-07T05:50:37;19.23;;;12.80;;
47219;SDS011;32961;51.936;4.788;2023-09-07T05:53:06;18.17;;;12.27;;
47219;SDS011;32961;51.936;4.788;2023-09-07T05:55:33;18.05;;;11.48;;
47219;SDS011;32961;51.936;4.788;2023-09-07T06:00:34;23.42;;;15.07;;
47219;SDS011;32961;51.936;4.788;2023-09-07T06:03:02;18.13;;;10.70;;
47219;SDS011;32961;51.936;4.788;2023-09-07T06:05:30;14.88;;;11.00;;
47219;SDS011;32961;51.936;4.788;2023-09-07T06:07:58;20.55;;;12.27;;
47219;SDS011;32961;51.936;4.788;2023-09-07T06:10:27;25.77;;;12.40;;
47219;SDS011;32961;51.936;4.788;2023-09-07T06:12:55;18.95;;;11.77;;
47219;SDS011;32961;51.936;4.788;2023-09-07T06:15:23;16.58;;;11.23;;
47219;SDS011;32961;51.936;4.788;2023-09-07T06:17:52;17.77;;;11.20;;
47219;SDS011;32961;51.936;4.788;2023-09-07T06:20:20;20.77;;;11.65;;
47219;SDS011;32961;51.936;4.788;2023-09-07T06:22:48;19.58;;;10.85;;
47219;SDS011;32961;51.936;4.788;2023-09-07T06:25:16;15.60;;;10.25;;
47219;SDS011;32961;51.936;4.788;2023-09-07T06:27:44;17.98;;;11.20;;
47219;SDS011;32961;51.936;4.788;2023-09-07T06:30:12;17.63;;;10.43;;
47219;SDS011;32961;51.936;4.788;2023-09-07T06:32:40;17.75;;;10.52;;
47219;SDS011;32961;51.936;4.788;2023-09-07T06:35:10;15.65;;;10.68;;
47219;SDS011;32961;51.936;4.788;2023-09-07T06:37:38;14.65;;;11.57;;
47219;SDS011;32961;51.936;4.788;2023-09-07T06:40:11;19.60;;;11.27;;
47219;SDS011;32961;51.936;4.788;2023-09-07T06:42:39;13.52;;;10.88;;
47219;SDS011;32961;51.936;4.788;2023-09-07T06:45:08;16.08;;;10.23;;
47219;SDS011;32961;51.936;4.788;2023-09-07T06:47:36;18.35;;;11.45;;
47219;SDS011;32961;51.936;4.788;2023-09-07T06:50:07;14.00;;;10.63;;
47219;SDS011;32961;51.936;4.788;2023-09-07T06:52:36;15.50;;;10.48;;
47219;SDS011;32961;51.936;4.788;2023-09-07T06:55:04;17.73;;;10.43;;
47219;SDS011;32961;51.936;4.788;2023-09-07T06:57:32;19.75;;;9.30;;
47219;SDS011;32961;51.936;4.788;2023-09-07T07:00:01;16.08;;;9.82;;
47219;SDS011;32961;51.936;4.788;2023-09-07T07:02:31;16.02;;;9.38;;
47219;SDS011;32961;51.936;4.788;2023-09-07T07:04:59;18.15;;;10.82;;
47219;SDS011;32961;51.936;4.788;2023-09-07T07:07:29;17.25;;;8.73;;
47219;SDS011;32961;51.936;4.788;2023-09-07T07:09:58;14.13;;;8.85;;
47219;SDS011;32961;51.936;4.788;2023-09-07T07:12:26;20.25;;;9.90;;
47219;SDS011;32961;51.936;4.788;2023-09-07T07:14:54;14.45;;;9.32;;
47219;SDS011;32961;51.936;4.788;2023-09-07T07:17:21;28.27;;;10.05;;
47219;SDS011;32961;51.936;4.788;2023-09-07T07:19:50;13.15;;;8.15;;
47219;SDS011;32961;51.936;4.788;2023-09-07T07:22:18;14.77;;;8.48;;
47219;SDS011;32961;51.936;4.788;2023-09-07T07:24:47;16.60;;;8.77;;
47219;SDS011;32961;51.936;4.788;2023-09-07T07:27:16;14.35;;;8.63;;
47219;SDS011;32961;51.936;4.788;2023-09-07T07:29:44;15.35;;;8.68;;
47219;SDS011;32961;51.936;4.788;2023-09-07T07:32:12;15.70;;;8.38;;
47219;SDS011;32961;51.936;4.788;2023-09-07T07:34:40;13.02;;;9.18;;
47219;SDS011;32961;51.936;4.788;2023-09-07T07:37:09;12.38;;;8.52;;
47219;SDS011;32961;51.936;4.788;2023-09-07T07:39:37;14.57;;;8.98;;
47219;SDS011;32961;51.936;4.788;2023-09-07T07:42:04;19.08;;;8.60;;
47219;SDS011;32961;51.936;4.788;2023-09-07T07:44:34;12.25;;;8.23;;
47219;SDS011;32961;51.936;4.788;2023-09-07T07:47:02;12.20;;;8.07;;
47219;SDS011;32961;51.936;4.788;2023-09-07T07:49:30;13.05;;;7.95;;
47219;SDS011;32961;51.936;4.788;2023-09-07T07:51:58;11.05;;;7.68;;
47219;SDS011;32961;51.936;4.788;2023-09-07T07:54:27;13.57;;;7.90;;
47219;SDS011;32961;51.936;4.788;2023-09-07T07:56:55;17.17;;;7.85;;
47219;SDS011;32961;51.936;4.788;2023-09-07T07:59:23;13.32;;;7.47;;
47219;SDS011;32961;51.936;4.788;2023-09-07T08:01:52;10.63;;;7.28;;
47219;SDS011;32961;51.936;4.788;2023-09-07T08:04:20;14.60;;;7.65;;
47219;SDS011;32961;51.936;4.788;2023-09-07T08:06:48;10.85;;;8.00;;
47219;SDS011;32961;51.936;4.788;2023-09-07T08:09:16;14.73;;;7.38;;
47219;SDS011;32961;51.936;4.788;2023-09-07T08:11:43;10.52;;;7.25;;
47219;SDS011;32961;51.936;4.788;2023-09-07T08:14:11;13.05;;;6.90;;
47219;SDS011;32961;51.936;4.788;2023-09-07T08:16:39;9.55;;;6.80;;
47219;SDS011;32961;51.936;4.788;2023-09-07T08:19:09;12.80;;;6.90;;
47219;SDS011;32961;51.936;4.788;2023-09-07T08:21:36;12.57;;;8.32;;
47219;SDS011;32961;51.936;4.788;2023-09-07T08:24:05;9.43;;;7.13;;
47219;SDS011;32961;51.936;4.788;2023-09-07T08:26:33;9.88;;;6.63;;
47219;SDS011;32961;51.936;4.788;2023-09-07T08:29:04;15.23;;;8.80;;
47219;SDS011;32961;51.936;4.788;2023-09-07T08:31:34;10.43;;;6.65;;
47219;SDS011;32961;51.936;4.788;2023-09-07T08:34:05;13.73;;;6.80;;
47219;SDS011;32961;51.936;4.788;2023-09-07T08:36:37;9.93;;;6.25;;
47219;SDS011;32961;51.936;4.788;2023-09-07T08:39:05;9.88;;;6.43;;
47219;SDS011;32961;51.936;4.788;2023-09-07T08:41:36;14.07;;;7.07;;
47219;SDS011;32961;51.936;4.788;2023-09-07T08:44:25;10.93;;;7.00;;
47219;SDS011;32961;51.936;4.788;2023-09-07T08:46:55;9.43;;;6.70;;
47219;SDS011;32961;51.936;4.788;2023-09-07T08:49:23;13.00;;;6.45;;
47219;SDS011;32961;51.936;4.788;2023-09-07T08:51:53;11.80;;;6.93;;
47219;SDS011;32961;51.936;4.788;2023-09-07T08:54:24;13.50;;;5.70;;
47219;SDS011;32961;51.936;4.788;2023-09-07T08:56:53;9.32;;;5.95;;
47219;SDS011;32961;51.936;4.788;2023-09-07T08:59:23;10.40;;;6.10;;
47219;SDS011;32961;51.936;4.788;2023-09-07T09:01:55;11.98;;;6.40;;
47219;SDS011;32961;51.936;4.788;2023-09-07T09:04:25;11.05;;;5.78;;
47219;SDS011;32961;51.936;4.788;2023-09-07T09:06:55;12.32;;;7.15;;
47219;SDS011;32961;51.936;4.788;2023-09-07T09:09:25;11.05;;;6.35;;
47219;SDS011;32961;51.936;4.788;2023-09-07T09:11:53;11.27;;;6.13;;
47219;SDS011;32961;51.936;4.788;2023-09-07T09:14:21;10.18;;;5.70;;
47219;SDS011;32961;51.936;4.788;2023-09-07T09:16:50;14.15;;;5.63;;
47219;SDS011;32961;51.936;4.788;2023-09-07T09:19:18;9.40;;;5.95;;
47219;SDS011;32961;51.936;4.788;2023-09-07T09:21:46;8.45;;;5.13;;
47219;SDS011;32961;51.936;4.788;2023-09-07T09:24:17;8.82;;;5.60;;
47219;SDS011;32961;51.936;4.788;2023-09-07T09:26:45;10.80;;;5.18;;
47219;SDS011;32961;51.936;4.788;2023-09-07T09:29:13;9.75;;;5.60;;
47219;SDS011;32961;51.936;4.788;2023-09-07T09:31:41;9.93;;;5.88;;
47219;SDS011;32961;51.936;4.788;2023-09-07T09:34:10;11.75;;;5.53;;
47219;SDS011;32961;51.936;4.788;2023-09-07T09:36:40;7.25;;;5.13;;
47219;SDS011;32961;51.936;4.788;2023-09-07T09:39:09;11.13;;;6.97;;
47219;SDS011;32961;51.936;4.788;2023-09-07T09:41:39;9.05;;;5.78;;
47219;SDS011;32961;51.936;4.788;2023-09-07T09:44:07;10.13;;;4.88;;
47219;SDS011;32961;51.936;4.788;2023-09-07T09:46:36;12.88;;;5.18;;
47219;SDS011;32961;51.936;4.788;2023-09-07T09:49:07;8.25;;;5.70;;
47219;SDS011;32961;51.936;4.788;2023-09-07T09:51:37;10.40;;;4.70;;
47219;SDS011;32961;51.936;4.788;2023-09-07T09:54:10;10.13;;;4.60;;
47219;SDS011;32961;51.936;4.788;2023-09-07T09:56:40;7.53;;;4.90;;
47219;SDS011;32961;51.936;4.788;2023-09-07T09:59:08;8.88;;;4.68;;
47219;SDS011;32961;51.936;4.788;2023-09-07T10:01:37;9.02;;;4.65;;
47219;SDS011;32961;51.936;4.788;2023-09-07T10:04:11;6.57;;;4.40;;
47219;SDS011;32961;51.936;4.788;2023-09-07T10:06:53;15.35;;;4.10;;
47219;SDS011;32961;51.936;4.788;2023-09-07T10:09:22;9.00;;;4.28;;
47219;SDS011;32961;51.936;4.788;2023-09-07T10:11:54;6.65;;;4.40;;
47219;SDS011;32961;51.936;4.788;2023-09-07T10:14:26;10.27;;;4.50;;
47219;SDS011;32961;51.936;4.788;2023-09-07T10:17:05;7.88;;;3.92;;
47219;SDS011;32961;51.936;4.788;2023-09-07T10:19:35;10.55;;;4.07;;
47219;SDS011;32961;51.936;4.788;2023-09-07T10:22:04;7.40;;;3.80;;
47219;SDS011;32961;51.936;4.788;2023-09-07T10:24:33;10.70;;;3.72;;
47219;SDS011;32961;51.936;4.788;2023-09-07T10:27:04;8.77;;;4.03;;
47219;SDS011;32961;51.936;4.788;2023-09-07T10:29:43;6.82;;;3.97;;
47219;SDS011;32961;51.936;4.788;2023-09-07T10:32:11;6.32;;;3.65;;
47219;SDS011;32961;51.936;4.788;2023-09-07T10:34:45;7.53;;;3.67;;
47219;SDS011;32961;51.936;4.788;2023-09-07T10:37:14;6.15;;;3.45;;
47219;SDS011;32961;51.936;4.788;2023-09-07T10:39:43;11.93;;;3.72;;
47219;SDS011;32961;51.936;4.788;2023-09-07T10:42:21;6.28;;;3.75;;
47219;SDS011;32961;51.936;4.788;2023-09-07T10:44:50;7.30;;;3.60;;
47219;SDS011;32961;51.936;4.788;2023-09-07T10:47:18;9.20;;;3.72;;
47219;SDS011;32961;51.936;4.788;2023-09-07T10:49:46;6.97;;;3.90;;
47219;SDS011;32961;51.936;4.788;2023-09-07T10:52:14;7.03;;;3.95;;
47219;SDS011;32961;51.936;4.788;2023-09-07T10:54:42;6.78;;;3.42;;
47219;SDS011;32961;51.936;4.788;2023-09-07T10:57:11;6.97;;;3.63;;
47219;SDS011;32961;51.936;4.788;2023-09-07T10:59:45;10.13;;;3.67;;
47219;SDS011;32961;51.936;4.788;2023-09-07T11:02:13;9.10;;;4.00;;
47219;SDS011;32961;51.936;4.788;2023-09-07T11:04:42;8.15;;;4.38;;
47219;SDS011;32961;51.936;4.788;2023-09-07T11:07:10;5.03;;;3.55;;
47219;SDS011;32961;51.936;4.788;2023-09-07T11:09:40;8.65;;;3.63;;
47219;SDS011;32961;51.936;4.788;2023-09-07T11:12:11;6.82;;;3.15;;
47219;SDS011;32961;51.936;4.788;2023-09-07T11:14:40;9.25;;;3.03;;
47219;SDS011;32961;51.936;4.788;2023-09-07T11:17:09;7.05;;;3.10;;
47219;SDS011;32961;51.936;4.788;2023-09-07T11:19:37;7.05;;;4.15;;
47219;SDS011;32961;51.936;4.788;2023-09-07T11:22:05;9.00;;;3.58;;
47219;SDS011;32961;51.936;4.788;2023-09-07T11:24:34;5.28;;;3.47;;
47219;SDS011;32961;51.936;4.788;2023-09-07T11:27:02;4.78;;;3.28;;
47219;SDS011;32961;51.936;4.788;2023-09-07T11:29:31;6.03;;;3.35;;
47219;SDS011;32961;51.936;4.788;2023-09-07T11:32:05;9.50;;;3.67;;
47219;SDS011;32961;51.936;4.788;2023-09-07T11:34:35;18.70;;;4.82;;
47219;SDS011;32961;51.936;4.788;2023-09-07T11:37:14;7.18;;;3.40;;
47219;SDS011;32961;51.936;4.788;2023-09-07T11:39:43;6.95;;;3.80;;
47219;SDS011;32961;51.936;4.788;2023-09-07T11:42:11;7.13;;;3.38;;
47219;SDS011;32961;51.936;4.788;2023-09-07T11:44:39;7.85;;;3.38;;
47219;SDS011;32961;51.936;4.788;2023-09-07T11:47:07;8.40;;;3.40;;
47219;SDS011;32961;51.936;4.788;2023-09-07T11:49:36;7.30;;;3.35;;
47219;SDS011;32961;51.936;4.788;2023-09-07T11:52:04;7.65;;;3.03;;
47219;SDS011;32961;51.936;4.788;2023-09-07T11:54:33;6.72;;;2.92;;
47219;SDS011;32961;51.936;4.788;2023-09-07T11:57:01;6.68;;;2.75;;
47219;SDS011;32961;51.936;4.788;2023-09-07T11:59:29;8.27;;;3.00;;
47219;SDS011;32961;51.936;4.788;2023-09-07T12:02:17;6.78;;;3.45;;
47219;SDS011;32961;51.936;4.788;2023-09-07T12:04:49;6.15;;;3.05;;
47219;SDS011;32961;51.936;4.788;2023-09-07T12:07:17;6.22;;;2.95;;
47219;SDS011;32961;51.936;4.788;2023-09-07T12:09:45;5.07;;;2.90;;
47219;SDS011;32961;51.936;4.788;2023-09-07T12:12:13;6.38;;;3.20;;
47219;SDS011;32961;51.936;4.788;2023-09-07T12:14:40;6.45;;;3.00;;
47219;SDS011;32961;51.936;4.788;2023-09-07T12:17:08;7.50;;;3.13;;
47219;SDS011;32961;51.936;4.788;2023-09-07T12:19:36;4.55;;;2.80;;
47219;SDS011;32961;51.936;4.788;2023-09-07T12:22:05;5.78;;;2.80;;
47219;SDS011;32961;51.936;4.788;2023-09-07T12:24:34;5.13;;;2.88;;
47219;SDS011;32961;51.936;4.788;2023-09-07T12:27:02;5.35;;;2.65;;
47219;SDS011;32961;51.936;4.788;2023-09-07T12:29:31;4.10;;;2.63;;
47219;SDS011;32961;51.936;4.788;2023-09-07T12:31:59;7.40;;;2.63;;
47219;SDS011;32961;51.936;4.788;2023-09-07T12:34:27;6.35;;;2.85;;
47219;SDS011;32961;51.936;4.788;2023-09-07T12:36:58;11.70;;;3.55;;
47219;SDS011;32961;51.936;4.788;2023-09-07T12:39:27;6.90;;;3.10;;
47219;SDS011;32961;51.936;4.788;2023-09-07T12:41:55;8.38;;;3.38;;
47219;SDS011;32961;51.936;4.788;2023-09-07T12:44:23;4.05;;;2.97;;
47219;SDS011;32961;51.936;4.788;2023-09-07T12:46:51;5.40;;;3.13;;
47219;SDS011;32961;51.936;4.788;2023-09-07T12:49:19;3.95;;;3.10;;
47219;SDS011;32961;51.936;4.788;2023-09-07T12:51:47;7.88;;;3.00;;
47219;SDS011;32961;51.936;4.788;2023-09-07T12:54:15;4.60;;;2.80;;
47219;SDS011;32961;51.936;4.788;2023-09-07T12:56:45;5.68;;;2.67;;
47219;SDS011;32961;51.936;4.788;2023-09-07T12:59:13;5.50;;;2.70;;
47219;SDS011;32961;51.936;4.788;2023-09-07T13:01:40;4.10;;;2.75;;
47219;SDS011;32961;51.936;4.788;2023-09-07T13:04:08;3.85;;;2.65;;
47219;SDS011;32961;51.936;4.788;2023-09-07T13:06:38;5.88;;;2.75;;
47219;SDS011;32961;51.936;4.788;2023-09-07T13:09:06;6.78;;;3.13;;
47219;SDS011;32961;51.936;4.788;2023-09-07T13:11:35;9.07;;;2.63;;
47219;SDS011;32961;51.936;4.788;2023-09-07T13:14:05;3.50;;;2.47;;
47219;SDS011;32961;51.936;4.788;2023-09-07T13:16:37;7.60;;;3.15;;
47219;SDS011;32961;51.936;4.788;2023-09-07T13:19:08;4.88;;;2.67;;
47219;SDS011;32961;51.936;4.788;2023-09-07T13:21:36;4.10;;;2.83;;
47219;SDS011;32961;51.936;4.788;2023-09-07T13:24:04;4.90;;;3.13;;
47219;SDS011;32961;51.936;4.788;2023-09-07T13:26:32;7.13;;;2.45;;
47219;SDS011;32961;51.936;4.788;2023-09-07T13:29:00;3.75;;;2.90;;
47219;SDS011;32961;51.936;4.788;2023-09-07T13:31:30;4.35;;;2.72;;
47219;SDS011;32961;51.936;4.788;2023-09-07T13:33:58;4.30;;;2.63;;
47219;SDS011;32961;51.936;4.788;2023-09-07T13:36:26;6.03;;;2.65;;
47219;SDS011;32961;51.936;4.788;2023-09-07T13:38:53;4.90;;;2.90;;
47219;SDS011;32961;51.936;4.788;2023-09-07T13:41:23;3.17;;;2.30;;
47219;SDS011;32961;51.936;4.788;2023-09-07T13:43:51;4.07;;;2.70;;
47219;SDS011;32961;51.936;4.788;2023-09-07T13:46:20;5.68;;;2.67;;
47219;SDS011;32961;51.936;4.788;2023-09-07T13:48:49;5.00;;;2.70;;
47219;SDS011;32961;51.936;4.788;2023-09-07T13:51:17;5.65;;;2.83;;
47219;SDS011;32961;51.936;4.788;2023-09-07T13:53:44;3.00;;;2.70;;
47219;SDS011;32961;51.936;4.788;2023-09-07T13:56:12;4.18;;;2.45;;
47219;SDS011;32961;51.936;4.788;2023-09-07T13:58:40;5.18;;;2.60;;
47219;SDS011;32961;51.936;4.788;2023-09-07T14:01:08;3.38;;;2.63;;
47219;SDS011;32961;51.936;4.788;2023-09-07T14:03:36;4.85;;;2.60;;
47219;SDS011;32961;51.936;4.788;2023-09-07T14:06:06;4.55;;;3.17;;
47219;SDS011;32961;51.936;4.788;2023-09-07T14:08:34;6.35;;;3.05;;
47219;SDS011;32961;51.936;4.788;2023-09-07T14:11:02;5.07;;;2.85;;
47219;SDS011;32961;51.936;4.788;2023-09-07T14:13:32;4.38;;;2.40;;
47219;SDS011;32961;51.936;4.788;2023-09-07T14:16:03;4.40;;;3.05;;
47219;SDS011;32961;51.936;4.788;2023-09-07T14:18:36;5.80;;;2.55;;
47219;SDS011;32961;51.936;4.788;2023-09-07T14:21:06;6.55;;;3.38;;
47219;SDS011;32961;51.936;4.788;2023-09-07T14:23:33;6.47;;;3.10;;
47219;SDS011;32961;51.936;4.788;2023-09-07T14:26:01;4.40;;;3.20;;
47219;SDS011;32961;51.936;4.788;2023-09-07T14:28:29;4.63;;;3.08;;
47219;SDS011;32961;51.936;4.788;2023-09-07T14:30:57;4.22;;;3.00;;
47219;SDS011;32961;51.936;4.788;2023-09-07T14:33:29;6.28;;;2.67;;
47219;SDS011;32961;51.936;4.788;2023-09-07T14:35:58;6.32;;;3.05;;
47219;SDS011;32961;51.936;4.788;2023-09-07T14:38:28;5.60;;;2.65;;
47219;SDS011;32961;51.936;4.788;2023-09-07T14:40:57;4.57;;;3.10;;
47219;SDS011;32961;51.936;4.788;2023-09-07T14:43:24;4.47;;;2.70;;
47219;SDS011;32961;51.936;4.788;2023-09-07T14:45:52;7.18;;;2.95;;
47219;SDS011;32961;51.936;4.788;2023-09-07T14:48:24;5.82;;;3.45;;